createdAt,value
2022-08-31T00:00:20.262Z,29.45
2022-08-31T00:01:00.851Z,29.39
2022-08-31T00:01:41.269Z,29.36
2022-08-31T00:02:23.078Z,29.32
2022-08-31T00:03:03.297Z,29.19
2022-08-31T00:03:43.595Z,29.14
2022-08-31T00:04:07.378Z,29.08
2022-08-31T00:04:30.100Z,29.05
2022-08-31T00:04:52.499Z,29.03
2022-08-31T00:05:14.538Z,28.98
2022-08-31T00:05:39.069Z,29.01
2022-08-31T00:06:03.111Z,28.97
2022-08-31T00:06:24.735Z,28.91
2022-08-31T00:06:51.415Z,28.89
2022-08-31T00:07:16.864Z,28.83
2022-08-31T00:07:39.172Z,28.83
2022-08-31T00:08:02.439Z,28.82
2022-08-31T00:08:26.023Z,28.77
2022-08-31T00:08:52.060Z,28.77
2022-08-31T00:09:13.710Z,28.75
2022-08-31T00:09:35.862Z,28.77
2022-08-31T00:09:58.002Z,28.72
2022-08-31T00:10:22.298Z,28.65
2022-08-31T00:10:55.497Z,28.61
2022-08-31T00:11:18.580Z,28.65
2022-08-31T00:11:40.244Z,28.64
2022-08-31T00:12:04.412Z,28.59
2022-08-31T00:12:26.159Z,28.63
2022-08-31T00:12:48.999Z,28.64
2022-08-31T00:13:10.773Z,28.62
2022-08-31T00:13:32.574Z,28.59
2022-08-31T00:13:56.858Z,28.51
2022-08-31T00:14:19.242Z,28.54
2022-08-31T00:14:41.035Z,28.49
2022-08-31T00:15:03.245Z,28.45
2022-08-31T00:15:27.015Z,28.40
2022-08-31T00:15:49.452Z,28.41
2022-08-31T00:16:12.601Z,28.41
2022-08-31T00:16:37.430Z,28.37
2022-08-31T00:17:00.292Z,28.37
2022-08-31T00:17:23.261Z,28.34
2022-08-31T00:17:45.161Z,28.35
2022-08-31T00:18:08.556Z,28.34
2022-08-31T00:18:30.202Z,28.31
2022-08-31T00:18:53.512Z,28.31
2022-08-31T00:19:15.817Z,28.31
2022-08-31T00:19:37.479Z,28.26
2022-08-31T00:19:59.149Z,28.27
2022-08-31T00:20:33.620Z,28.24
2022-08-31T00:20:57.173Z,28.22
2022-08-31T00:21:20.661Z,28.20
2022-08-31T00:21:42.808Z,28.15
2022-08-31T00:22:06.573Z,28.15
2022-08-31T00:22:29.209Z,28.15
2022-08-31T00:22:50.832Z,28.13
2022-08-31T00:23:14.567Z,28.12
2022-08-31T00:23:37.264Z,28.11
2022-08-31T00:23:59.311Z,28.07
2022-08-31T00:24:20.967Z,28.06
2022-08-31T00:24:42.649Z,28.04
2022-08-31T00:25:06.197Z,28.00
2022-08-31T00:25:27.894Z,27.98
2022-08-31T00:25:49.944Z,27.97
2022-08-31T00:26:11.748Z,27.97
2022-08-31T00:26:34.490Z,27.86
2022-08-31T00:26:56.168Z,27.95
2022-08-31T00:27:17.818Z,27.93
2022-08-31T00:27:39.753Z,27.86
2022-08-31T00:28:02.490Z,27.90
2022-08-31T00:28:25.432Z,27.87
2022-08-31T00:28:47.733Z,27.82
2022-08-31T00:29:09.588Z,27.81
2022-08-31T00:29:31.304Z,27.80
2022-08-31T00:29:54.133Z,27.73
2022-08-31T00:30:17.929Z,27.79
2022-08-31T00:30:40.567Z,27.78
2022-08-31T00:31:02.266Z,27.76
2022-08-31T00:31:24.035Z,27.74
2022-08-31T00:31:46.822Z,27.72
2022-08-31T00:32:08.707Z,27.69
2022-08-31T00:32:31.806Z,27.74
2022-08-31T00:32:53.937Z,27.70
2022-08-31T00:33:19.956Z,27.71
2022-08-31T00:33:42.617Z,27.68
2022-08-31T00:34:04.722Z,27.63
2022-08-31T00:34:27.909Z,27.66
2022-08-31T00:34:52.298Z,27.65
2022-08-31T00:35:13.980Z,27.67
2022-08-31T00:35:36.589Z,27.63
2022-08-31T00:36:42.241Z,27.68
2022-08-31T00:37:04.415Z,27.71
2022-08-31T00:37:27.048Z,27.69
2022-08-31T00:37:48.709Z,27.73
2022-08-31T00:38:11.609Z,27.72
2022-08-31T00:38:34.347Z,27.71
2022-08-31T00:38:56.879Z,27.72
2022-08-31T00:39:18.665Z,27.61
2022-08-31T00:39:41.369Z,27.69
2022-08-31T00:40:04.482Z,27.68
2022-08-31T00:40:27.543Z,27.61
2022-08-31T00:40:49.438Z,27.66
2022-08-31T00:41:12.807Z,27.68
2022-08-31T00:41:37.465Z,27.68
2022-08-31T00:41:59.400Z,27.68
2022-08-31T00:42:21.145Z,27.64
2022-08-31T00:42:42.816Z,27.61
2022-08-31T00:43:05.999Z,27.62
2022-08-31T00:43:36.081Z,27.59
2022-08-31T00:44:00.461Z,27.58
2022-08-31T00:44:23.514Z,27.53
2022-08-31T00:44:45.487Z,27.50
2022-08-31T00:45:08.182Z,27.42
2022-08-31T00:45:29.928Z,27.47
2022-08-31T00:45:51.700Z,27.45
2022-08-31T00:46:18.051Z,27.44
2022-08-31T00:46:42.372Z,27.41
2022-08-31T00:47:04.618Z,27.20
2022-08-31T00:47:27.263Z,27.40
2022-08-31T00:47:50.327Z,27.38
2022-08-31T00:48:12.077Z,27.38
2022-08-31T00:48:34.352Z,27.37
2022-08-31T00:49:02.698Z,27.38
2022-08-31T00:49:28.158Z,27.32
2022-08-31T00:49:51.410Z,27.34
2022-08-31T00:50:16.050Z,27.39
2022-08-31T00:50:38.781Z,27.41
2022-08-31T00:51:01.860Z,27.34
2022-08-31T00:51:24.089Z,27.45
2022-08-31T00:51:50.675Z,27.44
2022-08-31T00:52:16.137Z,27.43
2022-08-31T00:52:41.096Z,27.43
2022-08-31T00:53:02.848Z,27.43
2022-08-31T00:53:25.387Z,27.43
2022-08-31T00:53:48.036Z,27.44
2022-08-31T00:54:17.754Z,27.41
2022-08-31T00:54:44.298Z,27.45
2022-08-31T00:55:09.809Z,27.45
2022-08-31T00:55:34.311Z,27.47
2022-08-31T00:55:57.412Z,27.43
2022-08-31T00:56:20.052Z,27.47
2022-08-31T00:56:44.752Z,27.48
2022-08-31T00:57:08.289Z,27.49
2022-08-31T00:57:34.181Z,27.53
2022-08-31T00:57:59.838Z,27.49
2022-08-31T00:58:21.876Z,27.49
2022-08-31T00:58:44.237Z,27.49
2022-08-31T00:59:12.532Z,27.50
2022-08-31T00:59:35.733Z,27.49
2022-08-31T00:59:59.466Z,27.52
2022-08-31T01:00:25.092Z,27.50
2022-08-31T01:00:47.737Z,27.50
2022-08-31T01:01:12.591Z,27.50
2022-08-31T01:01:34.640Z,27.48
2022-08-31T01:01:56.477Z,27.43
2022-08-31T01:02:18.658Z,27.46
2022-08-31T01:02:41.515Z,27.46
2022-08-31T01:03:07.394Z,27.45
2022-08-31T01:03:29.095Z,27.42
2022-08-31T01:03:50.805Z,27.41
2022-08-31T01:04:13.531Z,27.39
2022-08-31T01:04:35.768Z,27.41
2022-08-31T01:04:57.459Z,27.44
2022-08-31T01:05:20.054Z,27.44
2022-08-31T01:05:43.707Z,27.40
2022-08-31T01:06:05.824Z,27.40
2022-08-31T01:06:27.980Z,27.37
2022-08-31T01:06:51.433Z,27.34
2022-08-31T01:07:15.190Z,27.30
2022-08-31T01:07:38.946Z,27.30
2022-08-31T01:08:01.652Z,27.30
2022-08-31T01:08:28.796Z,27.28
2022-08-31T01:08:56.531Z,27.23
2022-08-31T01:09:21.143Z,27.26
2022-08-31T01:09:55.468Z,27.21
2022-08-31T01:10:21.832Z,27.26
2022-08-31T01:10:45.009Z,27.28
2022-08-31T01:11:06.987Z,27.27
2022-08-31T01:11:29.394Z,27.25
2022-08-31T01:11:52.144Z,27.24
2022-08-31T01:12:14.011Z,27.19
2022-08-31T01:12:36.231Z,27.16
2022-08-31T01:12:59.521Z,27.14
2022-08-31T01:13:23.024Z,27.14
2022-08-31T01:13:48.271Z,27.12
2022-08-31T01:14:10.876Z,27.12
2022-08-31T01:14:32.921Z,27.09
2022-08-31T01:14:55.185Z,27.05
2022-08-31T01:15:18.838Z,27.01
2022-08-31T01:15:47.979Z,27.01
2022-08-31T01:16:18.283Z,27.04
2022-08-31T01:16:44.894Z,27.02
2022-08-31T01:17:07.500Z,26.99
2022-08-31T01:17:31.728Z,26.99
2022-08-31T01:17:56.223Z,26.96
2022-08-31T01:18:20.949Z,27.02
2022-08-31T01:18:43.993Z,27.03
2022-08-31T01:19:13.366Z,27.02
2022-08-31T01:19:40.165Z,27.00
2022-08-31T01:20:09.264Z,26.99
2022-08-31T01:20:37.269Z,27.00
2022-08-31T01:21:14.907Z,27.02
2022-08-31T01:21:43.748Z,27.04
2022-08-31T01:22:14.895Z,26.96
2022-08-31T01:22:43.019Z,27.04
2022-08-31T01:23:09.482Z,27.05
2022-08-31T01:23:34.837Z,27.03
2022-08-31T01:24:02.826Z,27.04
2022-08-31T01:24:26.459Z,27.07
2022-08-31T01:24:51.941Z,27.02
2022-08-31T01:25:14.606Z,27.03
2022-08-31T01:25:38.121Z,27.03
2022-08-31T01:26:03.449Z,27.03
2022-08-31T01:26:28.040Z,27.03
2022-08-31T01:26:55.483Z,27.01
2022-08-31T01:27:23.368Z,27.00
2022-08-31T01:27:46.777Z,26.99
2022-08-31T01:28:09.411Z,26.99
2022-08-31T01:28:32.929Z,26.98
2022-08-31T01:28:58.291Z,26.97
2022-08-31T01:29:21.255Z,26.97
2022-08-31T01:29:43.468Z,26.98
2022-08-31T01:30:10.312Z,26.98
2022-08-31T01:30:34.010Z,26.95
2022-08-31T01:31:02.082Z,26.91
2022-08-31T01:31:28.775Z,26.94
2022-08-31T01:31:50.804Z,26.95
2022-08-31T01:32:13.537Z,26.96
2022-08-31T01:32:35.216Z,26.91
2022-08-31T01:32:57.298Z,26.89
2022-08-31T01:33:19.121Z,26.93
2022-08-31T01:33:40.989Z,26.92
2022-08-31T01:34:03.717Z,26.91
2022-08-31T01:34:25.544Z,26.92
2022-08-31T01:34:47.663Z,26.91
2022-08-31T01:35:11.513Z,26.91
2022-08-31T01:35:34.551Z,26.90
2022-08-31T01:35:58.168Z,26.86
2022-08-31T01:36:20.569Z,26.87
2022-08-31T01:36:44.911Z,26.86
2022-08-31T01:37:07.807Z,26.88
2022-08-31T01:37:30.248Z,26.81
2022-08-31T01:37:53.428Z,26.89
2022-08-31T01:38:16.525Z,26.85
2022-08-31T01:38:39.180Z,26.86
2022-08-31T01:39:00.861Z,26.82
2022-08-31T01:39:23.216Z,26.84
2022-08-31T01:39:44.898Z,26.85
2022-08-31T01:40:08.612Z,26.84
2022-08-31T01:40:34.521Z,26.84
2022-08-31T01:41:01.793Z,26.80
2022-08-31T01:41:23.608Z,26.76
2022-08-31T01:41:46.629Z,26.80
2022-08-31T01:42:08.352Z,26.76
2022-08-31T01:42:33.167Z,26.74
2022-08-31T01:42:55.938Z,26.78
2022-08-31T01:43:18.116Z,26.74
2022-08-31T01:43:40.859Z,26.75
2022-08-31T01:44:03.077Z,26.75
2022-08-31T01:44:27.159Z,26.74
2022-08-31T01:44:49.817Z,26.64
2022-08-31T01:45:12.266Z,26.71
2022-08-31T01:45:33.977Z,26.69
2022-08-31T01:45:56.251Z,26.68
2022-08-31T01:46:18.948Z,26.67
2022-08-31T01:46:41.904Z,26.62
2022-08-31T01:47:04.002Z,26.58
2022-08-31T01:47:26.693Z,26.64
2022-08-31T01:47:48.396Z,26.63
2022-08-31T01:48:10.381Z,26.63
2022-08-31T01:48:32.706Z,26.60
2022-08-31T01:48:55.373Z,26.54
2022-08-31T01:49:20.345Z,26.60
2022-08-31T01:49:42.268Z,26.63
2022-08-31T01:50:04.693Z,26.61
2022-08-31T01:50:27.440Z,26.61
2022-08-31T01:50:49.376Z,26.61
2022-08-31T01:51:13.987Z,26.63
2022-08-31T01:51:37.813Z,26.64
2022-08-31T01:51:59.557Z,26.58
2022-08-31T01:52:21.184Z,26.57
2022-08-31T01:52:46.248Z,26.61
2022-08-31T01:53:09.739Z,26.59
2022-08-31T01:53:34.456Z,26.58
2022-08-31T01:53:56.602Z,26.54
2022-08-31T01:54:20.209Z,26.51
2022-08-31T01:54:41.916Z,26.50
2022-08-31T01:55:06.104Z,26.53
2022-08-31T01:55:27.798Z,26.53
2022-08-31T01:55:49.446Z,26.51
2022-08-31T01:56:13.681Z,26.51
2022-08-31T01:56:37.985Z,26.50
2022-08-31T01:57:01.743Z,26.50
2022-08-31T01:57:38.792Z,26.48
2022-08-31T01:58:20.212Z,26.48
2022-08-31T01:58:47.980Z,26.47
2022-08-31T01:59:28.902Z,26.43
2022-08-31T02:00:01.050Z,26.43
2022-08-31T02:00:44.154Z,26.44
2022-08-31T02:01:12.749Z,26.42
2022-08-31T02:01:51.331Z,26.41
2022-08-31T02:02:13.138Z,26.41
2022-08-31T02:02:37.246Z,26.38
2022-08-31T02:03:02.089Z,26.43
2022-08-31T02:03:25.112Z,26.46
2022-08-31T02:03:46.776Z,26.41
2022-08-31T02:04:11.425Z,26.41
2022-08-31T02:04:33.341Z,26.41
2022-08-31T02:04:54.986Z,26.45
2022-08-31T02:05:17.886Z,26.43
2022-08-31T02:05:41.129Z,26.41
2022-08-31T02:06:08.548Z,26.46
2022-08-31T02:06:30.979Z,26.47
2022-08-31T02:06:55.956Z,26.46
2022-08-31T02:07:17.661Z,26.50
2022-08-31T02:07:40.491Z,26.49
2022-08-31T02:08:03.161Z,26.44
2022-08-31T02:08:25.847Z,26.50
2022-08-31T02:08:49.001Z,26.39
2022-08-31T02:09:11.293Z,26.49
2022-08-31T02:09:32.963Z,26.48
2022-08-31T02:09:54.797Z,26.48
2022-08-31T02:10:17.452Z,26.48
2022-08-31T02:10:39.749Z,26.46
2022-08-31T02:11:01.708Z,26.50
2022-08-31T02:11:23.497Z,26.51
2022-08-31T02:11:46.814Z,26.52
2022-08-31T02:12:08.584Z,26.50
2022-08-31T02:12:34.488Z,26.51
2022-08-31T02:12:56.348Z,26.52
2022-08-31T02:13:25.006Z,26.50
2022-08-31T02:13:46.719Z,26.49
2022-08-31T02:14:10.783Z,26.51
2022-08-31T02:14:32.493Z,26.51
2022-08-31T02:14:55.162Z,26.52
2022-08-31T02:15:17.077Z,26.50
2022-08-31T02:15:39.361Z,26.51
2022-08-31T02:16:01.170Z,26.52
2022-08-31T02:16:24.373Z,26.52
2022-08-31T02:16:46.329Z,26.52
2022-08-31T02:17:08.669Z,26.54
2022-08-31T02:17:31.390Z,26.53
2022-08-31T02:17:53.511Z,26.53
2022-08-31T02:18:16.410Z,26.50
2022-08-31T02:18:40.857Z,26.49
2022-08-31T02:19:03.142Z,26.49
2022-08-31T02:19:24.823Z,26.49
2022-08-31T02:19:46.468Z,26.46
2022-08-31T02:20:12.519Z,26.44
2022-08-31T02:20:34.382Z,26.42
2022-08-31T02:20:56.296Z,26.38
2022-08-31T02:21:18.228Z,26.38
2022-08-31T02:21:41.185Z,26.35
2022-08-31T02:22:03.165Z,26.38
2022-08-31T02:22:24.978Z,26.37
2022-08-31T02:22:50.204Z,26.36
2022-08-31T02:23:12.907Z,26.35
2022-08-31T02:23:34.670Z,26.36
2022-08-31T02:23:57.689Z,26.35
2022-08-31T02:24:20.382Z,26.39
2022-08-31T02:24:43.321Z,26.40
2022-08-31T02:25:06.788Z,26.43
2022-08-31T02:25:31.452Z,26.44
2022-08-31T02:25:56.005Z,26.42
2022-08-31T02:26:19.179Z,26.45
2022-08-31T02:26:41.399Z,26.45
2022-08-31T02:27:03.424Z,26.43
2022-08-31T02:27:25.975Z,26.39
2022-08-31T02:27:48.836Z,26.42
2022-08-31T02:28:13.671Z,26.44
2022-08-31T02:28:35.571Z,26.43
2022-08-31T02:28:57.453Z,26.44
2022-08-31T02:29:21.648Z,26.45
2022-08-31T02:29:43.367Z,26.46
2022-08-31T02:30:06.809Z,26.48
2022-08-31T02:30:28.809Z,26.47
2022-08-31T02:30:53.731Z,26.45
2022-08-31T02:31:15.782Z,26.45
2022-08-31T02:31:47.005Z,26.46
2022-08-31T02:32:19.663Z,26.47
2022-08-31T02:32:43.588Z,26.48
2022-08-31T02:33:05.372Z,26.49
2022-08-31T02:33:27.017Z,26.46
2022-08-31T02:33:48.717Z,26.44
2022-08-31T02:34:12.320Z,26.43
2022-08-31T02:34:35.463Z,26.40
2022-08-31T02:34:57.119Z,26.40
2022-08-31T02:35:19.544Z,26.42
2022-08-31T02:35:42.996Z,26.41
2022-08-31T02:36:06.148Z,26.38
2022-08-31T02:36:28.149Z,26.37
2022-08-31T02:36:50.625Z,26.37
2022-08-31T02:37:13.871Z,26.38
2022-08-31T02:37:35.955Z,26.39
2022-08-31T02:37:58.850Z,26.40
2022-08-31T02:38:22.875Z,26.40
2022-08-31T02:38:45.513Z,26.38
2022-08-31T02:39:08.532Z,26.40
2022-08-31T02:39:31.929Z,26.40
2022-08-31T02:39:53.836Z,26.41
2022-08-31T02:40:16.653Z,26.37
2022-08-31T02:40:40.931Z,26.34
2022-08-31T02:41:05.294Z,26.43
2022-08-31T02:41:27.117Z,26.45
2022-08-31T02:41:48.919Z,26.37
2022-08-31T02:42:10.663Z,26.42
2022-08-31T02:42:52.126Z,26.38
2022-08-31T02:43:24.402Z,26.40
2022-08-31T02:43:48.339Z,26.34
2022-08-31T02:44:10.786Z,26.33
2022-08-31T02:44:32.717Z,26.28
2022-08-31T02:44:55.341Z,26.33
2022-08-31T02:45:17.999Z,26.35
2022-08-31T02:45:39.760Z,26.30
2022-08-31T02:46:07.522Z,26.36
2022-08-31T02:46:36.650Z,26.34
2022-08-31T02:47:19.185Z,26.29
2022-08-31T02:48:06.258Z,26.31
2022-08-31T02:48:35.720Z,26.27
2022-08-31T02:48:57.676Z,26.29
2022-08-31T02:49:19.654Z,26.30
2022-08-31T02:49:42.260Z,26.33
2022-08-31T02:50:05.928Z,26.33
2022-08-31T02:50:29.190Z,26.36
2022-08-31T02:50:53.575Z,26.33
2022-08-31T02:51:16.254Z,26.29
2022-08-31T02:51:40.264Z,26.29
2022-08-31T02:52:02.025Z,26.32
2022-08-31T02:52:23.900Z,26.31
2022-08-31T02:52:46.194Z,26.30
2022-08-31T02:53:09.747Z,26.29
2022-08-31T02:53:31.891Z,26.28
2022-08-31T02:53:53.613Z,26.26
2022-08-31T02:54:18.153Z,26.27
2022-08-31T02:54:41.425Z,26.24
2022-08-31T02:55:05.073Z,26.25
2022-08-31T02:55:27.580Z,26.25
2022-08-31T02:55:49.720Z,26.24
2022-08-31T02:56:14.226Z,26.25
2022-08-31T02:56:35.950Z,26.26
2022-08-31T02:56:58.851Z,26.29
2022-08-31T02:57:20.536Z,26.29
2022-08-31T02:57:42.240Z,26.28
2022-08-31T02:58:06.322Z,26.20
2022-08-31T02:58:29.146Z,26.29
2022-08-31T02:58:54.672Z,26.29
2022-08-31T02:59:20.641Z,26.29
2022-08-31T02:59:42.458Z,26.25
2022-08-31T03:00:07.039Z,26.21
2022-08-31T03:00:28.813Z,26.25
2022-08-31T03:00:51.286Z,26.23
2022-08-31T03:01:13.989Z,26.19
2022-08-31T03:01:37.231Z,26.20
2022-08-31T03:01:59.187Z,26.18
2022-08-31T03:02:22.542Z,26.19
2022-08-31T03:02:54.886Z,26.18
2022-08-31T03:03:17.884Z,26.19
2022-08-31T03:03:39.780Z,26.19
2022-08-31T03:04:03.177Z,26.18
2022-08-31T03:04:25.874Z,26.20
2022-08-31T03:04:47.480Z,26.19
2022-08-31T03:05:11.593Z,26.19
2022-08-31T03:05:33.473Z,26.16
2022-08-31T03:05:56.365Z,26.17
2022-08-31T03:06:19.816Z,26.15
2022-08-31T03:06:42.107Z,26.13
2022-08-31T03:07:03.952Z,26.13
2022-08-31T03:07:25.665Z,26.13
2022-08-31T03:07:49.648Z,26.10
2022-08-31T03:08:11.439Z,26.09
2022-08-31T03:08:33.731Z,26.12
2022-08-31T03:08:55.455Z,26.14
2022-08-31T03:09:20.518Z,26.12
2022-08-31T03:09:42.229Z,26.13
2022-08-31T03:10:08.546Z,26.11
2022-08-31T03:10:30.360Z,26.10
2022-08-31T03:10:53.743Z,26.10
2022-08-31T03:11:17.772Z,26.06
2022-08-31T03:11:39.525Z,26.08
2022-08-31T03:12:01.386Z,26.08
2022-08-31T03:12:26.647Z,26.09
2022-08-31T03:12:51.876Z,26.10
2022-08-31T03:13:13.740Z,26.06
2022-08-31T03:13:38.423Z,26.11
2022-08-31T03:14:01.028Z,26.09
2022-08-31T03:14:23.528Z,26.08
2022-08-31T03:14:46.463Z,26.10
2022-08-31T03:15:10.045Z,26.09
2022-08-31T03:15:32.838Z,26.10
2022-08-31T03:15:57.230Z,26.08
2022-08-31T03:16:19.573Z,26.08
2022-08-31T03:16:42.176Z,26.11
2022-08-31T03:17:04.977Z,26.08
2022-08-31T03:17:28.392Z,26.06
2022-08-31T03:17:50.790Z,26.05
2022-08-31T03:18:15.568Z,26.05
2022-08-31T03:18:38.403Z,26.07
2022-08-31T03:19:00.236Z,26.06
2022-08-31T03:19:22.716Z,26.08
2022-08-31T03:19:44.348Z,25.98
2022-08-31T03:20:08.729Z,26.08
2022-08-31T03:20:30.536Z,26.09
2022-08-31T03:20:56.458Z,26.08
2022-08-31T03:21:18.170Z,26.04
2022-08-31T03:21:40.479Z,26.08
2022-08-31T03:22:03.618Z,26.09
2022-08-31T03:22:25.227Z,26.07
2022-08-31T03:22:47.034Z,26.04
2022-08-31T03:23:09.256Z,26.04
2022-08-31T03:23:32.605Z,26.04
2022-08-31T03:23:54.538Z,26.02
2022-08-31T03:24:17.934Z,26.01
2022-08-31T03:24:41.110Z,26.00
2022-08-31T03:25:04.409Z,26.00
2022-08-31T03:25:26.265Z,25.94
2022-08-31T03:25:48.925Z,25.96
2022-08-31T03:26:11.566Z,25.98
2022-08-31T03:26:34.449Z,25.97
2022-08-31T03:26:56.188Z,25.98
2022-08-31T03:27:18.209Z,25.96
2022-08-31T03:27:40.956Z,25.98
2022-08-31T03:28:04.413Z,25.96
2022-08-31T03:28:28.667Z,25.98
2022-08-31T03:29:28.669Z,25.98
2022-08-31T03:30:12.898Z,26.00
2022-08-31T03:30:37.230Z,25.98
2022-08-31T03:31:02.655Z,25.98
2022-08-31T03:31:24.854Z,25.97
2022-08-31T03:31:47.921Z,25.96
2022-08-31T03:32:10.869Z,25.98
2022-08-31T03:32:33.600Z,25.97
2022-08-31T03:32:57.267Z,25.99
2022-08-31T03:33:25.886Z,25.99
2022-08-31T03:33:47.504Z,25.98
2022-08-31T03:34:09.144Z,26.00
2022-08-31T03:34:30.946Z,26.00
2022-08-31T03:34:55.377Z,26.01
2022-08-31T03:35:18.670Z,26.03
2022-08-31T03:35:43.680Z,26.00
2022-08-31T03:36:05.795Z,26.03
2022-08-31T03:36:28.484Z,26.01
2022-08-31T03:36:50.111Z,26.08
2022-08-31T03:37:12.128Z,26.09
2022-08-31T03:37:34.014Z,26.10
2022-08-31T03:37:58.286Z,26.12
2022-08-31T03:38:20.535Z,26.09
2022-08-31T03:38:42.343Z,26.06
2022-08-31T03:39:04.670Z,26.06
2022-08-31T03:39:27.403Z,26.07
2022-08-31T03:39:51.645Z,26.02
2022-08-31T03:40:13.953Z,26.03
2022-08-31T03:40:35.838Z,26.04
2022-08-31T03:40:59.320Z,25.90
2022-08-31T03:41:24.714Z,25.99
2022-08-31T03:41:47.079Z,25.89
2022-08-31T03:42:09.013Z,26.07
2022-08-31T03:42:32.008Z,26.10
2022-08-31T03:42:53.989Z,26.11
2022-08-31T03:43:15.896Z,26.10
2022-08-31T03:43:39.159Z,26.10
2022-08-31T03:44:01.906Z,26.11
2022-08-31T03:44:23.834Z,26.08
2022-08-31T03:44:46.851Z,26.08
2022-08-31T03:45:16.843Z,26.06
2022-08-31T03:45:39.981Z,26.09
2022-08-31T03:46:01.869Z,26.09
2022-08-31T03:46:24.726Z,26.06
2022-08-31T03:46:50.048Z,26.04
2022-08-31T03:47:12.801Z,26.02
2022-08-31T03:47:36.936Z,25.99
2022-08-31T03:48:11.990Z,26.00
2022-08-31T03:48:35.964Z,25.96
2022-08-31T03:49:00.247Z,25.99
2022-08-31T03:49:22.470Z,26.00
2022-08-31T03:50:10.485Z,26.02
2022-08-31T03:50:46.587Z,26.03
2022-08-31T03:51:13.837Z,26.00
2022-08-31T03:51:37.129Z,25.99
2022-08-31T03:51:59.162Z,25.98
2022-08-31T03:52:25.627Z,25.97
2022-08-31T03:53:05.242Z,25.92
2022-08-31T03:53:27.170Z,25.96
2022-08-31T03:53:51.980Z,25.96
2022-08-31T03:54:15.070Z,25.92
2022-08-31T03:54:36.937Z,25.91
2022-08-31T03:55:00.283Z,25.90
2022-08-31T03:55:23.091Z,25.87
2022-08-31T03:55:46.983Z,25.88
2022-08-31T03:56:09.350Z,25.91
2022-08-31T03:56:35.763Z,25.89
2022-08-31T03:56:57.679Z,25.89
2022-08-31T03:57:20.475Z,25.91
2022-08-31T03:57:42.249Z,25.91
2022-08-31T03:58:04.917Z,25.93
2022-08-31T03:58:28.793Z,25.94
2022-08-31T03:58:51.639Z,25.92
2022-08-31T03:59:53.324Z,25.95
2022-08-31T04:00:17.016Z,25.99
2022-08-31T04:00:44.270Z,26.00
2022-08-31T04:01:21.359Z,25.97
2022-08-31T04:02:01.413Z,26.01
2022-08-31T04:02:42.095Z,26.00
2022-08-31T04:03:30.661Z,26.01
2022-08-31T04:04:12.186Z,25.96
2022-08-31T04:04:57.598Z,25.96
2022-08-31T04:05:44.030Z,25.97
2022-08-31T04:06:11.135Z,25.98
2022-08-31T04:06:51.637Z,25.98
2022-08-31T04:07:42.012Z,25.96
2022-08-31T04:08:26.005Z,25.91
2022-08-31T04:09:08.345Z,25.94
2022-08-31T04:09:57.091Z,25.92
2022-08-31T04:10:53.201Z,25.94
2022-08-31T04:11:46.372Z,25.92
2022-08-31T04:12:34.204Z,25.95
2022-08-31T04:13:08.093Z,25.96
2022-08-31T04:13:50.132Z,25.92
2022-08-31T04:14:30.049Z,25.92
2022-08-31T04:15:11.518Z,25.94
2022-08-31T04:16:10.033Z,25.90
2022-08-31T04:16:50.110Z,25.89
2022-08-31T04:17:37.007Z,25.87
2022-08-31T04:18:20.633Z,25.85
2022-08-31T04:18:45.225Z,25.86
2022-08-31T04:19:09.417Z,25.84
2022-08-31T04:19:42.984Z,25.86
2022-08-31T04:20:29.957Z,25.84
2022-08-31T04:20:52.189Z,25.82
2022-08-31T04:21:15.635Z,25.78
2022-08-31T04:21:37.654Z,25.76
2022-08-31T04:21:59.364Z,25.79
2022-08-31T04:22:23.634Z,25.80
2022-08-31T04:23:11.768Z,25.82
2022-08-31T04:23:41.172Z,25.88
2022-08-31T04:24:05.007Z,25.88
2022-08-31T04:24:26.830Z,25.82
2022-08-31T04:24:48.599Z,25.93
2022-08-31T04:25:10.553Z,25.92
2022-08-31T04:25:33.448Z,25.97
2022-08-31T04:25:57.756Z,25.92
2022-08-31T04:26:23.789Z,26.00
2022-08-31T04:26:46.392Z,26.02
2022-08-31T04:27:08.106Z,26.01
2022-08-31T04:27:29.777Z,26.01
2022-08-31T04:27:54.152Z,26.00
2022-08-31T04:28:16.834Z,26.01
2022-08-31T04:28:39.825Z,25.98
2022-08-31T04:29:01.920Z,25.98
2022-08-31T04:29:23.696Z,25.98
2022-08-31T04:29:46.325Z,25.98
2022-08-31T04:30:09.630Z,25.97
2022-08-31T04:30:31.463Z,25.97
2022-08-31T04:30:53.238Z,25.98
2022-08-31T04:31:17.383Z,25.99
2022-08-31T04:31:39.591Z,26.00
2022-08-31T04:32:01.245Z,25.99
2022-08-31T04:32:23.112Z,26.01
2022-08-31T04:32:44.919Z,25.99
2022-08-31T04:33:07.692Z,25.98
2022-08-31T04:33:29.381Z,25.99
2022-08-31T04:33:51.181Z,25.96
2022-08-31T04:34:13.237Z,25.98
2022-08-31T04:34:35.987Z,25.98
2022-08-31T04:34:58.029Z,25.99
2022-08-31T04:35:19.941Z,26.00
2022-08-31T04:35:42.778Z,26.00
2022-08-31T04:36:09.109Z,26.01
2022-08-31T04:36:31.460Z,26.00
2022-08-31T04:36:54.367Z,26.01
2022-08-31T04:37:16.268Z,26.03
2022-08-31T04:37:46.391Z,26.02
2022-08-31T04:38:10.087Z,25.93
2022-08-31T04:38:32.972Z,26.00
2022-08-31T04:38:56.798Z,25.95
2022-08-31T04:39:20.951Z,25.97
2022-08-31T04:39:50.439Z,25.98
2022-08-31T04:40:18.158Z,25.98
2022-08-31T04:40:43.020Z,25.98
2022-08-31T04:41:09.799Z,25.99
2022-08-31T04:41:33.198Z,25.99
2022-08-31T04:41:55.117Z,25.99
2022-08-31T04:42:18.324Z,25.97
2022-08-31T04:42:40.247Z,25.96
2022-08-31T04:43:01.983Z,25.93
2022-08-31T04:43:25.029Z,25.91
2022-08-31T04:43:50.165Z,25.89
2022-08-31T04:44:15.367Z,25.89
2022-08-31T04:44:39.892Z,25.88
2022-08-31T04:45:02.572Z,25.92
2022-08-31T04:45:24.582Z,25.89
2022-08-31T04:45:47.242Z,25.92
2022-08-31T04:46:09.530Z,25.94
2022-08-31T04:46:33.958Z,25.92
2022-08-31T04:46:55.764Z,25.95
2022-08-31T04:47:17.474Z,25.95
2022-08-31T04:47:39.194Z,25.95
2022-08-31T04:48:00.890Z,25.98
2022-08-31T04:48:23.526Z,25.97
2022-08-31T04:48:45.237Z,25.96
2022-08-31T04:49:09.172Z,25.96
2022-08-31T04:49:30.969Z,25.95
2022-08-31T04:49:52.715Z,25.95
2022-08-31T04:50:16.475Z,25.93
2022-08-31T04:51:02.340Z,25.92
2022-08-31T04:51:25.716Z,25.87
2022-08-31T04:51:48.423Z,25.92
2022-08-31T04:52:10.159Z,25.90
2022-08-31T04:52:31.905Z,25.89
2022-08-31T04:53:01.124Z,25.89
2022-08-31T04:53:26.628Z,25.91
2022-08-31T04:53:48.612Z,25.90
2022-08-31T04:54:12.176Z,25.88
2022-08-31T04:54:35.140Z,25.92
2022-08-31T04:54:56.847Z,25.93
2022-08-31T04:55:18.593Z,25.93
2022-08-31T04:55:41.417Z,25.92
2022-08-31T04:56:09.761Z,25.92
2022-08-31T04:56:33.822Z,25.89
2022-08-31T04:56:55.778Z,25.87
2022-08-31T04:57:25.192Z,25.85
2022-08-31T04:57:46.871Z,25.83
2022-08-31T04:58:08.853Z,25.82
2022-08-31T04:58:30.629Z,25.82
2022-08-31T04:58:54.900Z,25.82
2022-08-31T04:59:18.999Z,25.83
2022-08-31T05:00:01.364Z,25.83
2022-08-31T05:00:52.975Z,25.83
2022-08-31T05:01:49.726Z,25.83
2022-08-31T05:02:15.448Z,25.81
2022-08-31T05:02:45.283Z,25.80
2022-08-31T05:03:11.496Z,25.80
2022-08-31T05:03:33.805Z,25.78
2022-08-31T05:03:58.220Z,25.79
2022-08-31T05:04:23.995Z,25.82
2022-08-31T05:04:45.685Z,25.83
2022-08-31T05:05:07.844Z,25.73
2022-08-31T05:05:30.715Z,25.81
2022-08-31T05:05:53.530Z,25.77
2022-08-31T05:06:17.515Z,25.76
2022-08-31T05:06:42.553Z,25.73
2022-08-31T05:07:04.368Z,25.73
2022-08-31T05:07:27.481Z,25.77
2022-08-31T05:07:52.197Z,25.80
2022-08-31T05:08:13.937Z,25.80
2022-08-31T05:08:35.648Z,25.79
2022-08-31T05:09:00.069Z,25.79
2022-08-31T05:09:23.516Z,25.72
2022-08-31T05:09:46.898Z,25.73
2022-08-31T05:10:09.355Z,25.82
2022-08-31T05:10:32.087Z,25.80
2022-08-31T05:10:53.709Z,25.82
2022-08-31T05:11:21.737Z,25.80
2022-08-31T05:11:46.850Z,25.86
2022-08-31T05:12:10.077Z,25.87
2022-08-31T05:12:32.009Z,25.88
2022-08-31T05:12:53.888Z,25.90
2022-08-31T05:13:17.222Z,25.91
2022-08-31T05:13:39.981Z,25.93
2022-08-31T05:14:03.544Z,25.93
2022-08-31T05:14:25.808Z,25.93
2022-08-31T05:14:55.055Z,25.92
2022-08-31T05:15:19.520Z,25.93
2022-08-31T05:15:42.635Z,25.91
2022-08-31T05:16:05.993Z,25.95
2022-08-31T05:16:30.537Z,25.91
2022-08-31T05:16:54.008Z,25.92
2022-08-31T05:17:17.290Z,25.95
2022-08-31T05:17:38.998Z,25.91
2022-08-31T05:18:00.805Z,25.92
2022-08-31T05:18:25.592Z,25.89
2022-08-31T05:18:51.913Z,25.90
2022-08-31T05:19:14.754Z,25.94
2022-08-31T05:19:41.046Z,25.95
2022-08-31T05:20:05.280Z,25.96